Altamonte Springs, Florida
Current Conditions -  °F | °C
As of 4:53 AM on Monday 22 Dec 2014 (Local Time) from KORL Reporting Station
Broken Clouds Broken Clouds  
Wind Chill: 19°   Ceiling: 600
Heat Index: 19°   Visibility: 8mi
Dew Point: 19°   Wind: 6mph
Humidity: 97%   Direction: 90°E
Pressure: 30"   Gusts: NA
Location:  28.67°N, 81.36°W
Report Text: KORL 220953Z AUTO 09005KT 8SM BKN006 19/19 A3000 RMK AO2 CIG 004V008 SLP163 T01940189
Loading
Personal Weather Stations






























Interactive Weather Map New forecast layout! Learn more

10-Day Weather Forecast

Advertisements
Track Severe Weather on mobile